createdAt,value
2018-05-13T00:00:13.381Z,10.87
2018-05-13T00:02:40.894Z,12.77
2018-05-13T00:05:08.455Z,11.60
2018-05-13T00:07:36.100Z,13.70
2018-05-13T00:10:03.573Z,9.90
2018-05-13T00:12:31.052Z,9.97
2018-05-13T00:14:58.561Z,12.30
2018-05-13T00:17:26.049Z,13.20
2018-05-13T00:19:53.654Z,12.80
2018-05-13T00:22:21.148Z,13.17
2018-05-13T00:24:48.671Z,13.90
2018-05-13T00:27:16.205Z,18.13
2018-05-13T00:29:43.689Z,13.17
2018-05-13T00:32:11.534Z,12.90
2018-05-13T00:34:39.020Z,13.03
2018-05-13T00:37:06.541Z,14.30
2018-05-13T00:39:34.061Z,13.80
2018-05-13T00:42:01.552Z,14.13
2018-05-13T00:44:29.085Z,12.73
2018-05-13T00:46:56.576Z,12.93
2018-05-13T00:49:24.056Z,16.10
2018-05-13T00:51:51.601Z,13.63
2018-05-13T00:54:30.853Z,12.47
2018-05-13T00:56:58.629Z,14.90
2018-05-13T00:59:26.133Z,14.03
2018-05-13T01:01:53.617Z,15.90
2018-05-13T01:04:21.152Z,16.53
2018-05-13T01:06:48.637Z,18.47
2018-05-13T01:09:16.565Z,16.93
2018-05-13T01:11:44.056Z,21.63
2018-05-13T01:14:11.541Z,18.70
2018-05-13T01:16:39.063Z,17.83
2018-05-13T01:19:06.549Z,28.20
2018-05-13T01:21:34.221Z,16.77
2018-05-13T01:24:01.713Z,17.63
2018-05-13T01:26:29.290Z,17.43
2018-05-13T01:28:56.794Z,16.50
2018-05-13T01:31:24.276Z,15.50
2018-05-13T01:33:51.980Z,16.70
2018-05-13T01:36:19.501Z,18.27
2018-05-13T01:38:46.984Z,16.00
2018-05-13T01:41:14.493Z,16.47
2018-05-13T01:43:41.987Z,20.30
2018-05-13T01:46:09.645Z,16.60
2018-05-13T01:48:37.134Z,20.07
2018-05-13T01:51:04.621Z,15.47
2018-05-13T01:53:32.175Z,19.00
2018-05-13T01:55:59.685Z,17.80
2018-05-13T01:58:27.417Z,15.70
2018-05-13T02:00:54.907Z,17.27
2018-05-13T02:03:22.389Z,17.47
2018-05-13T02:05:49.921Z,17.03
2018-05-13T02:08:17.418Z,17.13
2018-05-13T02:10:44.968Z,17.37
2018-05-13T02:13:12.453Z,16.20
2018-05-13T02:15:39.937Z,16.03
2018-05-13T02:18:07.441Z,14.67
2018-05-13T02:20:34.935Z,18.00
2018-05-13T02:23:02.449Z,15.17
2018-05-13T02:25:29.945Z,15.03
2018-05-13T02:27:57.433Z,16.40
2018-05-13T02:30:24.945Z,16.00
2018-05-13T02:32:52.433Z,19.20
2018-05-13T02:35:20.061Z,16.07
2018-05-13T02:37:47.547Z,19.43
2018-05-13T02:40:15.041Z,16.83
2018-05-13T02:42:42.561Z,18.97
2018-05-13T02:45:10.046Z,20.03
2018-05-13T02:47:37.709Z,22.33
2018-05-13T02:50:05.202Z,20.73
2018-05-13T02:52:32.693Z,22.00
2018-05-13T02:55:00.225Z,24.20
2018-05-13T02:57:27.729Z,30.57
2018-05-13T02:59:55.256Z,19.57
2018-05-13T03:02:22.750Z,22.33
2018-05-13T03:04:50.237Z,27.40
2018-05-13T03:07:17.749Z,19.90
2018-05-13T03:09:45.257Z,25.37
2018-05-13T03:12:12.770Z,23.23
2018-05-13T03:14:40.249Z,35.50
2018-05-13T03:17:07.729Z,25.00
2018-05-13T03:19:35.243Z,21.60
2018-05-13T03:22:02.732Z,24.70
2018-05-13T03:24:30.345Z,13.63
2018-05-13T03:26:57.832Z,13.50
2018-05-13T03:29:25.313Z,15.33
2018-05-13T03:31:52.821Z,26.33
2018-05-13T03:34:20.317Z,25.87
2018-05-13T03:36:48.033Z,11.60
2018-05-13T03:39:15.513Z,12.50
2018-05-13T03:41:43.002Z,13.67
2018-05-13T03:44:10.507Z,7.87
2018-05-13T03:46:37.985Z,9.47
2018-05-13T03:49:05.513Z,11.17
2018-05-13T03:51:32.984Z,9.23
2018-05-13T03:54:00.473Z,7.03
2018-05-13T03:56:27.993Z,7.43
2018-05-13T03:58:55.476Z,7.00
2018-05-13T04:01:23.360Z,7.90
2018-05-13T04:03:50.861Z,8.90
2018-05-13T04:06:18.336Z,8.03
2018-05-13T04:08:57.780Z,7.97
2018-05-13T04:11:37.141Z,8.20
2018-05-13T04:14:17.406Z,10.30
2018-05-13T04:16:44.891Z,7.30
2018-05-13T04:19:12.517Z,9.10
2018-05-13T04:21:40.002Z,7.97
2018-05-13T04:24:07.481Z,8.80
2018-05-13T04:26:34.991Z,8.00
2018-05-13T04:29:02.467Z,8.50
2018-05-13T04:31:29.997Z,8.73
2018-05-13T04:33:57.472Z,8.77
2018-05-13T04:36:24.944Z,9.63
2018-05-13T04:38:52.450Z,9.87
2018-05-13T04:41:19.948Z,11.07
2018-05-13T04:43:47.629Z,12.67
2018-05-13T04:46:15.125Z,14.97
2018-05-13T04:48:42.608Z,13.10
2018-05-13T04:51:10.113Z,16.20
2018-05-13T04:53:37.613Z,16.60
2018-05-13T04:56:05.117Z,17.37
2018-05-13T04:58:32.601Z,25.50
2018-05-13T05:01:00.324Z,14.50
2018-05-13T05:03:27.821Z,16.87
2018-05-13T05:05:55.304Z,15.47
2018-05-13T05:08:22.816Z,16.47
2018-05-13T05:10:50.308Z,24.73
2018-05-13T05:13:17.846Z,17.27
2018-05-13T05:15:45.329Z,15.30
2018-05-13T05:18:12.825Z,14.10
2018-05-13T05:20:40.332Z,16.53
2018-05-13T05:23:07.816Z,15.57
2018-05-13T05:25:35.457Z,17.87
2018-05-13T05:28:02.941Z,19.23
2018-05-13T05:30:30.436Z,16.83
2018-05-13T05:32:57.949Z,15.90
2018-05-13T05:35:25.438Z,14.37
2018-05-13T05:37:53.281Z,15.90
2018-05-13T05:40:20.765Z,18.27
2018-05-13T05:42:48.296Z,14.57
2018-05-13T05:45:15.800Z,12.70
2018-05-13T05:47:43.285Z,10.87
2018-05-13T05:50:10.812Z,13.23
2018-05-13T05:52:38.293Z,15.10
2018-05-13T05:55:05.785Z,12.30
2018-05-13T05:57:33.310Z,19.93
2018-05-13T06:00:00.793Z,11.17
2018-05-13T06:02:28.325Z,12.03
2018-05-13T06:04:55.809Z,11.80
2018-05-13T06:07:23.296Z,13.10
2018-05-13T06:09:50.813Z,11.63
2018-05-13T06:12:18.314Z,10.90
2018-05-13T06:14:45.833Z,10.63
2018-05-13T06:17:13.328Z,10.27
2018-05-13T06:19:40.806Z,9.00
2018-05-13T06:22:08.345Z,12.97
2018-05-13T06:24:35.853Z,12.63
2018-05-13T06:27:03.501Z,10.83
2018-05-13T06:29:30.991Z,9.43
2018-05-13T06:31:58.539Z,9.03
2018-05-13T06:34:26.009Z,8.93
2018-05-13T06:36:53.493Z,17.13
2018-05-13T06:39:21.176Z,13.03
2018-05-13T06:41:48.661Z,17.43
2018-05-13T06:44:16.163Z,15.07
2018-05-13T06:46:43.673Z,12.83
2018-05-13T06:49:11.165Z,14.57
2018-05-13T06:51:38.672Z,13.10
2018-05-13T06:54:06.181Z,14.37
2018-05-13T06:56:33.673Z,12.53
2018-05-13T06:59:01.197Z,12.83
2018-05-13T07:01:28.725Z,14.10
2018-05-13T07:03:56.238Z,11.63
2018-05-13T07:06:23.740Z,12.27
2018-05-13T07:08:51.229Z,11.43
2018-05-13T07:11:18.988Z,10.83
2018-05-13T07:13:46.474Z,10.30
2018-05-13T07:16:13.961Z,10.83
2018-05-13T07:18:41.522Z,11.90
2018-05-13T07:21:09.030Z,11.90
2018-05-13T07:23:36.513Z,12.40
2018-05-13T07:26:04.189Z,11.40
2018-05-13T07:28:31.690Z,16.10
2018-05-13T07:30:59.166Z,9.87
2018-05-13T07:33:26.833Z,10.47
2018-05-13T07:35:54.309Z,9.50
2018-05-13T07:38:21.789Z,10.20
2018-05-13T07:40:49.327Z,11.50
2018-05-13T07:43:16.821Z,10.40
2018-05-13T07:45:44.681Z,9.53
2018-05-13T07:48:12.152Z,9.50
2018-05-13T07:50:39.636Z,13.13
2018-05-13T07:53:07.144Z,11.10
2018-05-13T07:55:34.619Z,9.03
2018-05-13T07:58:02.156Z,9.60
2018-05-13T08:00:29.646Z,9.10
2018-05-13T08:02:57.145Z,12.23
2018-05-13T08:05:24.700Z,11.20
2018-05-13T08:07:52.193Z,10.73
2018-05-13T08:10:20.025Z,10.43
2018-05-13T08:12:47.737Z,10.67
2018-05-13T08:15:15.249Z,10.33
2018-05-13T08:17:42.847Z,11.63
2018-05-13T08:20:10.521Z,11.50
2018-05-13T08:22:38.207Z,10.17
2018-05-13T08:25:05.697Z,9.33
2018-05-13T08:27:33.177Z,12.50
2018-05-13T08:30:00.709Z,10.37
2018-05-13T08:32:28.217Z,9.87
2018-05-13T08:34:55.828Z,8.80
2018-05-13T08:37:23.308Z,10.57
2018-05-13T08:39:50.809Z,10.67
2018-05-13T08:42:18.313Z,9.97
2018-05-13T08:44:45.825Z,10.10
2018-05-13T08:47:13.469Z,11.13
2018-05-13T08:49:40.949Z,10.03
2018-05-13T08:52:08.438Z,12.77
2018-05-13T08:54:35.969Z,10.93
2018-05-13T08:57:03.493Z,11.00
2018-05-13T08:59:31.393Z,10.30
2018-05-13T09:01:58.861Z,12.37
2018-05-13T09:04:26.353Z,20.03
2018-05-13T09:06:53.907Z,13.73
2018-05-13T09:09:21.401Z,12.43
2018-05-13T09:11:48.940Z,14.90
2018-05-13T09:14:16.418Z,10.17
2018-05-13T09:16:43.904Z,17.43
2018-05-13T09:19:11.441Z,11.60
2018-05-13T09:21:38.961Z,12.50
2018-05-13T09:24:06.761Z,11.40
2018-05-13T09:26:34.278Z,10.23
2018-05-13T09:29:01.765Z,11.30
2018-05-13T09:31:29.280Z,14.63
2018-05-13T09:33:56.793Z,10.60
2018-05-13T09:36:24.315Z,10.70
2018-05-13T09:38:51.814Z,10.73
2018-05-13T09:41:19.795Z,10.07
2018-05-13T09:43:47.316Z,10.67
2018-05-13T09:46:14.797Z,9.93
2018-05-13T09:48:42.326Z,9.23
2018-05-13T09:51:09.863Z,10.47
2018-05-13T09:53:37.334Z,11.23
2018-05-13T09:56:04.841Z,8.33
2018-05-13T09:58:32.394Z,7.47
2018-05-13T10:01:00.250Z,8.73
2018-05-13T10:03:27.735Z,8.43
2018-05-13T10:05:55.221Z,8.93
2018-05-13T10:08:22.725Z,9.10
2018-05-13T10:10:50.237Z,7.47
2018-05-13T10:13:17.754Z,7.90
2018-05-13T10:15:45.237Z,8.67
2018-05-13T10:18:12.734Z,11.00
2018-05-13T10:20:40.237Z,7.00
2018-05-13T10:23:07.755Z,7.37
2018-05-13T10:25:35.288Z,6.60
2018-05-13T10:28:03.648Z,5.70
2018-05-13T10:30:31.134Z,6.60
2018-05-13T10:32:58.660Z,11.57
2018-05-13T10:35:26.157Z,5.00
2018-05-13T10:37:53.953Z,5.33
2018-05-13T10:40:21.456Z,6.03
2018-05-13T10:42:48.939Z,4.47
2018-05-13T10:45:17.229Z,5.03
2018-05-13T10:47:44.721Z,5.53
2018-05-13T10:50:12.225Z,4.93
2018-05-13T10:52:39.721Z,4.93
2018-05-13T10:55:07.201Z,4.50
2018-05-13T10:57:34.722Z,4.53
2018-05-13T11:00:02.238Z,4.57
2018-05-13T11:02:29.965Z,4.13
2018-05-13T11:04:57.469Z,5.30
2018-05-13T11:07:24.971Z,4.53
2018-05-13T11:09:52.489Z,5.63
2018-05-13T11:12:19.990Z,3.60
2018-05-13T11:14:47.743Z,4.27
2018-05-13T11:17:15.225Z,4.43
2018-05-13T11:19:42.725Z,3.70
2018-05-13T11:22:10.241Z,4.47
2018-05-13T11:24:37.738Z,4.03
2018-05-13T11:27:06.531Z,11.50
2018-05-13T11:29:34.013Z,3.30
2018-05-13T11:32:01.490Z,9.63
2018-05-13T11:34:29.069Z,3.93
2018-05-13T11:36:56.545Z,2.70
2018-05-13T11:39:24.369Z,3.50
2018-05-13T11:41:51.854Z,3.73
2018-05-13T11:44:19.344Z,2.57
2018-05-13T11:46:47.751Z,2.87
2018-05-13T11:49:15.245Z,2.13
2018-05-13T11:51:42.820Z,2.30
2018-05-13T11:54:10.321Z,1.57
2018-05-13T11:56:37.813Z,1.93
2018-05-13T11:59:05.363Z,2.30
2018-05-13T12:01:32.856Z,1.73
2018-05-13T12:04:00.372Z,1.73
2018-05-13T12:06:27.883Z,5.90
2018-05-13T12:08:55.360Z,2.00
2018-05-13T12:11:22.889Z,2.00
2018-05-13T12:13:50.374Z,2.40
2018-05-13T12:16:18.102Z,2.20
2018-05-13T12:18:46.067Z,2.50
2018-05-13T12:21:13.565Z,1.90
2018-05-13T12:23:41.230Z,2.70
2018-05-13T12:26:08.712Z,2.73
2018-05-13T12:28:36.437Z,1.93
2018-05-13T12:31:03.919Z,1.90
2018-05-13T12:33:31.400Z,2.13
2018-05-13T12:35:59.682Z,1.97
2018-05-13T12:38:27.201Z,1.67
2018-05-13T12:40:55.056Z,2.17
2018-05-13T12:43:22.535Z,2.40
2018-05-13T12:45:50.023Z,2.63
2018-05-13T12:48:17.547Z,3.30
2018-05-13T12:50:45.127Z,2.20
2018-05-13T12:53:12.673Z,3.00
2018-05-13T12:55:40.153Z,3.60
2018-05-13T12:58:07.739Z,2.83
2018-05-13T13:00:35.265Z,2.53
2018-05-13T13:03:02.745Z,4.20
2018-05-13T13:05:30.532Z,3.03
2018-05-13T13:07:58.011Z,3.20
2018-05-13T13:10:25.490Z,3.23
2018-05-13T13:12:53.049Z,3.97
2018-05-13T13:15:20.512Z,4.73
2018-05-13T13:17:48.190Z,4.37
2018-05-13T13:20:15.769Z,4.43
2018-05-13T13:22:43.269Z,5.00
2018-05-13T13:25:11.381Z,7.60
2018-05-13T13:27:38.863Z,6.30
2018-05-13T13:30:06.382Z,7.00
2018-05-13T13:32:33.868Z,8.23
2018-05-13T13:35:01.369Z,8.33
2018-05-13T13:37:28.873Z,8.30
2018-05-13T13:39:56.377Z,8.23
2018-05-13T13:42:24.044Z,8.77
2018-05-13T13:44:51.526Z,7.90
2018-05-13T13:47:19.111Z,8.17
2018-05-13T13:49:46.773Z,8.47
2018-05-13T13:52:14.261Z,9.73
2018-05-13T13:54:42.185Z,7.97
2018-05-13T13:57:09.676Z,9.00
2018-05-13T13:59:37.155Z,9.47
2018-05-13T14:02:04.673Z,9.97
2018-05-13T14:04:32.157Z,9.53
2018-05-13T14:07:00.061Z,9.70
2018-05-13T14:09:27.541Z,8.53
2018-05-13T14:11:55.047Z,9.70
2018-05-13T14:14:22.553Z,10.40
2018-05-13T14:16:50.033Z,9.63
2018-05-13T14:19:17.700Z,12.03
2018-05-13T14:21:45.200Z,10.67
2018-05-13T14:24:12.715Z,12.37
2018-05-13T14:26:40.241Z,11.93
2018-05-13T14:29:07.896Z,14.77
2018-05-13T14:31:35.621Z,15.33
2018-05-13T14:34:03.115Z,13.87
2018-05-13T14:36:30.628Z,17.40
2018-05-13T14:38:58.151Z,13.13
2018-05-13T14:41:25.691Z,13.93
2018-05-13T14:43:53.337Z,16.30
2018-05-13T14:46:20.852Z,14.93
2018-05-13T14:48:48.333Z,15.40
2018-05-13T14:51:15.859Z,16.63
2018-05-13T14:53:43.355Z,14.83
2018-05-13T14:56:11.088Z,15.13
2018-05-13T14:58:38.590Z,14.17
2018-05-13T15:01:07.060Z,13.43
2018-05-13T15:03:34.587Z,15.50
2018-05-13T15:06:02.092Z,13.60
2018-05-13T15:08:30.573Z,12.63
2018-05-13T15:10:58.062Z,13.47
2018-05-13T15:13:25.575Z,13.67
2018-05-13T15:15:53.096Z,13.70
2018-05-13T15:18:20.612Z,12.50
2018-05-13T15:20:48.143Z,15.30
2018-05-13T15:23:15.659Z,12.70
2018-05-13T15:25:43.145Z,14.10
2018-05-13T15:28:10.664Z,17.10
2018-05-13T15:30:38.161Z,15.00
2018-05-13T15:33:06.001Z,15.03
2018-05-13T15:35:33.521Z,14.53
2018-05-13T15:38:01.725Z,17.03
2018-05-13T15:40:29.250Z,16.50
2018-05-13T15:42:57.300Z,17.37
2018-05-13T15:45:24.747Z,14.50
2018-05-13T15:47:52.244Z,16.30
2018-05-13T15:50:19.756Z,18.50
2018-05-13T15:52:47.284Z,17.73
2018-05-13T15:55:14.916Z,16.13
2018-05-13T15:57:42.760Z,18.70
2018-05-13T16:00:10.277Z,17.90
2018-05-13T16:02:37.818Z,17.23
2018-05-13T16:05:06.026Z,17.87
2018-05-13T16:07:33.565Z,20.60
2018-05-13T16:10:01.138Z,20.20
2018-05-13T16:12:28.631Z,20.30
2018-05-13T16:14:56.182Z,18.87
2018-05-13T16:17:23.697Z,21.50
2018-05-13T16:19:51.198Z,21.47
2018-05-13T16:22:18.736Z,23.30
2018-05-13T16:24:46.265Z,20.80
2018-05-13T16:27:13.769Z,22.73
2018-05-13T16:29:41.739Z,28.20
2018-05-13T16:32:09.706Z,21.30
2018-05-13T16:34:37.367Z,20.17
2018-05-13T16:37:04.864Z,23.63
2018-05-13T16:39:32.417Z,22.80
2018-05-13T16:42:00.399Z,25.80
2018-05-13T16:44:27.906Z,23.03
2018-05-13T16:46:55.939Z,27.23
2018-05-13T16:49:23.435Z,23.73
2018-05-13T16:51:50.985Z,24.43
2018-05-13T16:54:18.520Z,25.03
2018-05-13T16:56:46.672Z,25.00
2018-05-13T16:59:14.329Z,31.83
2018-05-13T17:01:41.837Z,28.20
2018-05-13T17:04:09.368Z,24.80
2018-05-13T17:06:36.898Z,31.13
2018-05-13T17:09:04.400Z,33.13
2018-05-13T17:11:33.340Z,27.33
2018-05-13T17:14:00.853Z,33.73
2018-05-13T17:16:28.361Z,27.27
2018-05-13T17:18:55.932Z,26.20
2018-05-13T17:21:23.439Z,26.50
2018-05-13T17:23:51.862Z,30.00
2018-05-13T17:26:19.361Z,32.17
2018-05-13T17:28:46.888Z,29.60
2018-05-13T17:31:14.463Z,30.67
2018-05-13T17:33:41.974Z,33.10
2018-05-13T17:36:09.655Z,35.87
2018-05-13T17:38:37.149Z,35.77
2018-05-13T17:41:04.656Z,39.50
2018-05-13T17:43:32.189Z,34.97
2018-05-13T17:45:59.837Z,37.00
2018-05-13T17:48:27.424Z,34.23
2018-05-13T17:50:54.924Z,38.70
2018-05-13T17:53:22.457Z,41.07
2018-05-13T17:55:50.559Z,43.33
2018-05-13T17:58:18.116Z,43.83
2018-05-13T18:00:46.305Z,38.87
2018-05-13T18:03:13.933Z,37.37
2018-05-13T18:05:41.447Z,41.37
2018-05-13T18:08:10.941Z,41.60
2018-05-13T18:10:38.510Z,41.43
2018-05-13T18:13:06.178Z,35.77
2018-05-13T18:15:33.776Z,41.73
2018-05-13T18:18:01.340Z,45.50
2018-05-13T18:20:29.472Z,42.13
2018-05-13T18:22:57.518Z,51.27
2018-05-13T18:25:25.224Z,42.03
2018-05-13T18:27:54.232Z,45.90
2018-05-13T18:30:24.332Z,36.20
2018-05-13T18:32:52.317Z,36.43
2018-05-13T18:35:21.636Z,36.50
2018-05-13T18:37:49.535Z,31.80
2018-05-13T18:40:17.499Z,27.70
2018-05-13T18:42:46.385Z,32.03
2018-05-13T18:45:15.315Z,35.90
2018-05-13T18:47:43.489Z,34.67
2018-05-13T18:50:11.833Z,43.03
2018-05-13T18:52:40.185Z,38.50
2018-05-13T18:55:09.323Z,38.17
2018-05-13T18:57:37.711Z,38.70
2018-05-13T19:00:06.321Z,39.90
2018-05-13T19:02:34.600Z,44.30
2018-05-13T19:05:03.667Z,45.83
2018-05-13T19:07:32.170Z,43.00
2018-05-13T19:10:01.095Z,46.07
2018-05-13T19:12:29.593Z,47.50
2018-05-13T19:14:58.754Z,42.93
2018-05-13T19:17:27.041Z,41.47
2018-05-13T19:19:55.873Z,45.83
2018-05-13T19:22:24.237Z,47.83
2018-05-13T19:24:52.504Z,52.80
2018-05-13T19:27:21.350Z,43.47
2018-05-13T19:29:49.947Z,42.83
2018-05-13T19:32:18.537Z,44.40
2018-05-13T19:34:46.868Z,45.90
2018-05-13T19:37:16.244Z,40.77
2018-05-13T19:39:44.972Z,50.13
2018-05-13T19:42:13.524Z,45.90
2018-05-13T19:44:42.093Z,46.00
2018-05-13T19:47:10.515Z,46.67
2018-05-13T19:49:39.325Z,46.07
2018-05-13T19:52:07.921Z,46.63
2018-05-13T19:54:36.267Z,42.17
2018-05-13T19:57:04.606Z,39.67
2018-05-13T19:59:33.094Z,42.20
2018-05-13T20:02:01.388Z,43.73
2018-05-13T20:04:29.980Z,44.80
2018-05-13T20:06:58.272Z,44.87
2018-05-13T20:09:26.588Z,47.27
2018-05-13T20:11:54.934Z,48.07
2018-05-13T20:14:23.472Z,49.10
2018-05-13T20:16:52.560Z,44.87
2018-05-13T20:19:20.824Z,52.90
2018-05-13T20:21:49.421Z,52.70
2018-05-13T20:24:17.721Z,53.07
2018-05-13T20:26:45.969Z,56.70
2018-05-13T20:29:14.802Z,58.43
2018-05-13T20:31:42.348Z,54.33
2018-05-13T20:34:10.128Z,57.03
2018-05-13T20:36:37.677Z,55.23
2018-05-13T20:39:05.206Z,56.03
2018-05-13T20:41:33.475Z,53.83
2018-05-13T20:44:00.999Z,52.40
2018-05-13T20:46:28.506Z,58.43
2018-05-13T20:48:56.042Z,66.17
2018-05-13T20:51:23.547Z,56.50
2018-05-13T20:53:51.217Z,61.90
2018-05-13T20:56:18.729Z,67.00
2018-05-13T20:58:46.218Z,57.30
2018-05-13T21:01:13.751Z,66.67
2018-05-13T21:03:41.269Z,61.63
2018-05-13T21:06:08.971Z,64.60
2018-05-13T21:08:36.463Z,64.57
2018-05-13T21:11:04.033Z,64.50
2018-05-13T21:13:31.573Z,61.90
2018-05-13T21:15:59.106Z,70.47
2018-05-13T21:18:26.658Z,66.20
2018-05-13T21:20:54.156Z,67.27
2018-05-13T21:23:21.645Z,71.33
2018-05-13T21:25:49.231Z,78.90
2018-05-13T21:28:16.726Z,69.17
2018-05-13T21:30:44.391Z,70.47
2018-05-13T21:33:11.905Z,67.23
2018-05-13T21:35:39.398Z,73.20
2018-05-13T21:38:06.921Z,72.77
2018-05-13T21:40:34.409Z,74.63
2018-05-13T21:43:02.244Z,69.57
2018-05-13T21:45:29.736Z,70.73
2018-05-13T21:47:57.250Z,63.93
2018-05-13T21:50:24.769Z,83.20
2018-05-13T21:52:52.275Z,71.90
2018-05-13T21:55:19.921Z,65.40
2018-05-13T21:57:47.427Z,70.70
2018-05-13T22:00:14.925Z,76.70
2018-05-13T22:02:42.437Z,71.80
2018-05-13T22:05:10.045Z,72.47
2018-05-13T22:07:37.961Z,71.57
2018-05-13T22:10:05.468Z,62.73
2018-05-13T22:12:32.958Z,66.93
2018-05-13T22:15:00.473Z,72.47
2018-05-13T22:17:27.998Z,65.03
2018-05-13T22:19:55.518Z,67.83
2018-05-13T22:22:23.014Z,70.47
2018-05-13T22:24:50.514Z,68.83
2018-05-13T22:27:18.024Z,65.97
2018-05-13T22:29:45.560Z,54.37
2018-05-13T22:32:13.273Z,56.70
2018-05-13T22:34:40.802Z,58.10
2018-05-13T22:37:08.308Z,57.50
2018-05-13T22:39:35.818Z,53.20
2018-05-13T22:42:03.389Z,50.57
2018-05-13T22:44:31.128Z,49.93
2018-05-13T22:46:58.613Z,38.97
2018-05-13T22:49:26.121Z,49.37
2018-05-13T22:51:53.629Z,48.37
2018-05-13T22:54:21.113Z,35.03
2018-05-13T22:56:48.643Z,41.80
2018-05-13T22:59:16.148Z,35.93
2018-05-13T23:01:43.634Z,36.40
2018-05-13T23:04:11.141Z,36.77
2018-05-13T23:06:38.633Z,46.50
2018-05-13T23:09:06.143Z,42.90
2018-05-13T23:11:33.656Z,47.30
2018-05-13T23:14:01.145Z,43.50
2018-05-13T23:16:28.629Z,40.80
2018-05-13T23:18:56.157Z,44.00
2018-05-13T23:21:23.641Z,38.83
2018-05-13T23:23:51.185Z,42.33
2018-05-13T23:26:18.698Z,42.80
2018-05-13T23:28:46.214Z,47.37
2018-05-13T23:31:13.701Z,47.77
2018-05-13T23:33:41.220Z,47.97
2018-05-13T23:36:08.705Z,53.30
2018-05-13T23:38:36.212Z,50.50
2018-05-13T23:41:03.956Z,41.80
2018-05-13T23:43:31.444Z,45.40
2018-05-13T23:45:58.928Z,49.80
2018-05-13T23:48:26.777Z,50.60
2018-05-13T23:50:54.263Z,49.67
2018-05-13T23:53:21.753Z,54.60
2018-05-13T23:55:49.287Z,58.53
2018-05-13T23:58:16.792Z,59.33
